Time;durP1;ratioP1;P1;durP2;ratioP2;P2;SDS_P1;SDS_P2;PMS_P1;PMS_P2;Temp;Humidity;BMP_temperature;BMP_pressure;BME280_temperature;BME280_humidity;BME280_pressure;Samples;Min_cycle;Max_cycle;Signal;HPM_P1;HPM_P2
2024/03/19 00:01:01;;;;;;;;;21.50;20.00;;;;;;;;5035560;28;10882;-88
2024/03/19 00:03:29;;;;;;;;;24.25;19.25;;;;;;;;5035774;28;10768;-86
2024/03/19 00:05:56;;;;;;;;;19.50;17.25;;;;;;;;5050907;28;10850;-87
2024/03/19 00:08:26;;;;;;;;;18.50;17.25;;;;;;;;5050684;28;10886;-88
2024/03/19 00:10:53;;;;;;;;;23.00;19.75;;;;;;;;5050773;28;10624;-90
2024/03/19 00:13:21;;;;;;;;;18.50;18.25;;;;;;;;5055316;28;10782;-88
2024/03/19 00:15:50;;;;;;;;;20.75;19.75;;;;;;;;5050535;28;10688;-84
2024/03/19 00:18:20;;;;;;;;;15.75;15.50;;;;;;;;5049691;28;10762;-84
2024/03/19 00:20:48;;;;;;;;;24.75;24.75;;;;;;;;5050304;28;10725;-86
2024/03/19 00:23:15;;;;;;;;;23.75;23.75;;;;;;;;5050593;28;10800;-86
2024/03/19 00:25:44;;;;;;;;;35.50;31.25;;;;;;;;5051750;28;10496;-87
2024/03/19 00:28:11;;;;;;;;;23.75;22.75;;;;;;;;5051415;28;10791;-85
2024/03/19 00:30:41;;;;;;;;;28.50;24.75;;;;;;;;5049997;28;10685;-90
2024/03/19 00:33:10;;;;;;;;;21.75;21.75;;;;;;;;5050114;28;10612;-86
2024/03/19 00:35:42;;;;;;;;;26.50;26.00;;;;;;;;5053045;28;10432;-86
2024/03/19 00:38:10;;;;;;;;;28.75;26.00;;;;;;;;5052767;28;10786;-88
2024/03/19 00:40:37;;;;;;;;;25.75;24.75;;;;;;;;5052929;28;10518;-88
2024/03/19 00:43:07;;;;;;;;;23.75;23.25;;;;;;;;5053610;28;10426;-86
2024/03/19 00:45:34;;;;;;;;;26.50;26.00;;;;;;;;5053219;28;10576;-87
2024/03/19 00:48:02;;;;;;;;;23.75;23.75;;;;;;;;5053041;28;10423;-89
2024/03/19 00:50:29;;;;;;;;;32.00;29.00;;;;;;;;5053804;28;10214;-86
2024/03/19 00:52:57;;;;;;;;;28.25;27.00;;;;;;;;5052957;28;10553;-89
2024/03/19 00:55:25;;;;;;;;;27.67;27.67;;;;;;;;5053665;28;10571;-87
2024/03/19 00:57:52;;;;;;;;;31.25;30.25;;;;;;;;5053098;28;10458;-89
2024/03/19 01:00:24;;;;;;;;;25.00;25.00;;;;;;;;5046063;28;10611;-90
2024/03/19 01:02:51;;;;;;;;;24.50;23.00;;;;;;;;5073055;28;10459;-85
2024/03/19 01:05:19;;;;;;;;;22.00;22.00;;;;;;;;5057815;28;10448;-89
2024/03/19 01:07:45;;;;;;;;;29.50;29.25;;;;;;;;5058668;28;10437;-89
2024/03/19 01:10:14;;;;;;;;;32.75;28.75;;;;;;;;5054754;28;10508;-89
2024/03/19 01:12:41;;;;;;;;;25.75;25.00;;;;;;;;5059384;28;10427;-86
2024/03/19 01:15:10;;;;;;;;;26.50;24.50;;;;;;;;5061037;28;10267;-86
2024/03/19 01:17:39;;;;;;;;;27.75;24.75;;;;;;;;5059108;28;10494;-87
2024/03/19 01:20:10;;;;;;;;;25.25;22.00;;;;;;;;5054343;28;10290;-84
2024/03/19 01:22:38;;;;;;;;;25.00;24.75;;;;;;;;5043351;28;10331;-85
2024/03/19 01:25:06;;;;;;;;;21.00;21.00;;;;;;;;5050874;28;10182;-87
2024/03/19 01:27:33;;;;;;;;;22.00;18.00;;;;;;;;5051064;28;10171;-86
2024/03/19 01:30:00;;;;;;;;;23.25;22.00;;;;;;;;5051658;28;10984;-85
2024/03/19 01:32:28;;;;;;;;;25.75;22.25;;;;;;;;5051528;28;10216;-86
2024/03/19 01:34:57;;;;;;;;;17.75;17.75;;;;;;;;5052505;28;10204;-89
2024/03/19 01:37:24;;;;;;;;;18.25;16.50;;;;;;;;5053292;28;11023;-83
2024/03/19 01:39:52;;;;;;;;;21.25;21.25;;;;;;;;5053987;28;10037;-85
2024/03/19 01:42:20;;;;;;;;;17.75;17.25;;;;;;;;5053778;28;10483;-86
2024/03/19 01:44:47;;;;;;;;;17.75;17.00;;;;;;;;5051805;28;10379;-87
2024/03/19 01:47:14;;;;;;;;;16.00;16.00;;;;;;;;5052853;28;10399;-85
2024/03/19 01:49:43;;;;;;;;;19.25;19.00;;;;;;;;5040462;28;10177;-87
2024/03/19 01:52:11;;;;;;;;;19.00;18.25;;;;;;;;5055221;28;10447;-87
2024/03/19 01:54:39;;;;;;;;;14.50;14.50;;;;;;;;5056496;28;10330;-92
2024/03/19 01:57:06;;;;;;;;;17.75;17.75;;;;;;;;5054591;28;10194;-90
2024/03/19 01:59:34;;;;;;;;;17.25;14.50;;;;;;;;5052829;28;10180;-90
2024/03/19 02:02:01;;;;;;;;;12.25;12.00;;;;;;;;5034257;28;10276;-88
2024/03/19 02:04:29;;;;;;;;;16.00;15.50;;;;;;;;5032884;28;10506;-85
2024/03/19 02:06:58;;;;;;;;;22.25;18.75;;;;;;;;5052135;28;10498;-84
2024/03/19 02:09:27;;;;;;;;;23.75;19.75;;;;;;;;5050891;28;10528;-85
2024/03/19 02:11:54;;;;;;;;;20.75;18.75;;;;;;;;5052154;28;10668;-88
2024/03/19 02:14:25;;;;;;;;;18.50;16.50;;;;;;;;5052575;28;10746;-89
2024/03/19 02:16:52;;;;;;;;;14.25;14.25;;;;;;;;5052836;28;10662;-89
2024/03/19 02:19:23;;;;;;;;;24.00;20.50;;;;;;;;5054038;28;10679;-86
2024/03/19 02:21:50;;;;;;;;;21.25;20.75;;;;;;;;5052698;28;10831;-88
2024/03/19 02:24:19;;;;;;;;;19.50;19.25;;;;;;;;5051351;28;10843;-88
2024/03/19 02:26:46;;;;;;;;;21.00;19.25;;;;;;;;5051212;28;10884;-88
2024/03/19 02:29:13;;;;;;;;;15.00;15.00;;;;;;;;5051727;28;10900;-86
2024/03/19 02:31:40;;;;;;;;;17.50;16.00;;;;;;;;5050423;28;10944;-86
2024/03/19 02:34:08;;;;;;;;;15.50;13.25;;;;;;;;5033817;28;10924;-92
2024/03/19 02:36:38;;;;;;;;;18.00;16.75;;;;;;;;5033457;28;10992;-89
2024/03/19 02:39:05;;;;;;;;;15.00;12.25;;;;;;;;5051522;28;11124;-85
2024/03/19 02:41:37;;;;;;;;;21.25;19.50;;;;;;;;5050579;28;10955;-87
2024/03/19 02:44:04;;;;;;;;;19.50;19.50;;;;;;;;5050992;28;11208;-87
2024/03/19 02:46:31;;;;;;;;;21.50;19.00;;;;;;;;5051578;28;11195;-85
2024/03/19 02:48:59;;;;;;;;;29.25;24.00;;;;;;;;5052124;28;11037;-87
2024/03/19 02:51:26;;;;;;;;;19.00;19.00;;;;;;;;5053231;28;11177;-89
2024/03/19 02:53:54;;;;;;;;;22.00;18.75;;;;;;;;5038999;28;11207;-87
2024/03/19 02:56:21;;;;;;;;;16.25;16.25;;;;;;;;5056870;28;11291;-91
2024/03/19 02:58:51;;;;;;;;;23.00;21.00;;;;;;;;5057479;28;11056;-90
2024/03/19 03:01:18;;;;;;;;;23.75;21.25;;;;;;;;5039167;28;11221;-88
2024/03/19 03:03:46;;;;;;;;;25.75;25.00;;;;;;;;5058141;28;11478;-92
2024/03/19 03:06:13;;;;;;;;;22.25;22.25;;;;;;;;5057443;28;11972;-85
2024/03/19 03:08:40;;;;;;;;;20.25;20.25;;;;;;;;5055036;28;11540;-88
2024/03/19 03:11:08;;;;;;;;;26.50;24.00;;;;;;;;5034288;28;11200;-86
2024/03/19 03:13:35;;;;;;;;;22.00;22.00;;;;;;;;5043421;28;11513;-91
2024/03/19 03:16:05;;;;;;;;;23.25;20.50;;;;;;;;5050745;28;11307;-88
2024/03/19 03:18:32;;;;;;;;;24.25;21.50;;;;;;;;5050748;28;11254;-89
2024/03/19 03:21:00;;;;;;;;;23.75;22.00;;;;;;;;5049416;28;11047;-86
2024/03/19 03:23:27;;;;;;;;;18.75;17.00;;;;;;;;5049715;28;11214;-85
2024/03/19 03:25:54;;;;;;;;;21.50;21.50;;;;;;;;5048446;28;11027;-86
2024/03/19 03:28:21;;;;;;;;;20.50;20.50;;;;;;;;5047183;28;11016;-88
2024/03/19 03:30:49;;;;;;;;;21.00;20.25;;;;;;;;5050179;28;10927;-90
2024/03/19 03:33:17;;;;;;;;;21.00;19.50;;;;;;;;5050538;28;11176;-88
2024/03/19 03:35:45;;;;;;;;;23.00;18.75;;;;;;;;5048649;28;10983;-85
2024/03/19 03:38:12;;;;;;;;;11.75;11.75;;;;;;;;5050768;28;10978;-88
2024/03/19 03:40:40;;;;;;;;;19.25;18.00;;;;;;;;5052797;28;11059;-88
2024/03/19 03:43:07;;;;;;;;;16.25;16.25;;;;;;;;5054557;28;10973;-86
2024/03/19 03:45:36;;;;;;;;;17.50;15.75;;;;;;;;5052351;28;11049;-85
2024/03/19 03:48:03;;;;;;;;;20.00;20.00;;;;;;;;5050776;28;11006;-84
2024/03/19 03:50:32;;;;;;;;;20.75;18.75;;;;;;;;5032189;28;11123;-87
2024/03/19 03:53:00;;;;;;;;;26.25;22.75;;;;;;;;5049290;28;11195;-86
2024/03/19 03:55:27;;;;;;;;;21.75;20.25;;;;;;;;5049811;28;11258;-88
2024/03/19 03:57:55;;;;;;;;;19.00;19.00;;;;;;;;5049695;28;11144;-86
2024/03/19 04:00:25;;;;;;;;;18.75;17.25;;;;;;;;5064688;28;11850;-86
2024/03/19 04:02:52;;;;;;;;;26.50;24.50;;;;;;;;5052764;28;11059;-89
2024/03/19 04:05:20;;;;;;;;;24.50;22.00;;;;;;;;5051543;28;11276;-87
2024/03/19 04:07:49;;;;;;;;;18.50;18.50;;;;;;;;5035201;28;11107;-87
2024/03/19 04:10:17;;;;;;;;;16.75;15.25;;;;;;;;5055712;28;11114;-89
2024/03/19 04:12:46;;;;;;;;;24.75;21.75;;;;;;;;5054127;28;11458;-92
2024/03/19 04:15:13;;;;;;;;;23.00;23.00;;;;;;;;5059761;28;10982;-89
2024/03/19 04:17:41;;;;;;;;;21.75;17.50;;;;;;;;5073705;28;11212;-89
2024/03/19 04:20:11;;;;;;;;;26.50;25.75;;;;;;;;5069554;28;10973;-88
2024/03/19 04:22:38;;;;;;;;;28.00;26.50;;;;;;;;5054459;28;11135;-88
2024/03/19 04:25:08;;;;;;;;;25.50;25.50;;;;;;;;5041272;28;11125;-89
2024/03/19 04:27:37;;;;;;;;;27.50;23.50;;;;;;;;5054006;28;11257;-87
2024/03/19 04:30:06;;;;;;;;;22.75;22.50;;;;;;;;5053097;28;11215;-90
2024/03/19 04:32:34;;;;;;;;;24.00;21.00;;;;;;;;5051849;28;11224;-89
2024/03/19 04:35:01;;;;;;;;;22.50;20.50;;;;;;;;5047025;28;11117;-88
2024/03/19 04:37:28;;;;;;;;;20.25;17.25;;;;;;;;5053155;28;11077;-88
2024/03/19 04:39:55;;;;;;;;;27.00;21.75;;;;;;;;5054229;28;11152;-90
2024/03/19 04:42:25;;;;;;;;;18.50;17.00;;;;;;;;5038290;28;11821;-91
2024/03/19 04:44:53;;;;;;;;;22.25;17.50;;;;;;;;5057397;28;10989;-86
2024/03/19 04:47:20;;;;;;;;;24.00;21.50;;;;;;;;5058153;28;11117;-85
2024/03/19 04:49:48;;;;;;;;;26.50;19.75;;;;;;;;5058085;28;11040;-85
2024/03/19 04:52:15;;;;;;;;;19.50;17.50;;;;;;;;5057567;28;10933;-89
2024/03/19 04:54:42;;;;;;;;;20.00;20.00;;;;;;;;5058047;28;10993;-87
2024/03/19 04:57:11;;;;;;;;;19.25;18.00;;;;;;;;5058692;28;11227;-87
2024/03/19 04:59:39;;;;;;;;;25.75;22.25;;;;;;;;5062709;28;11063;-84
2024/03/19 05:02:07;;;;;;;;;19.25;17.50;;;;;;;;5051222;28;11182;-86
2024/03/19 05:04:35;;;;;;;;;19.25;16.00;;;;;;;;5049926;28;11182;-87
2024/03/19 05:07:02;;;;;;;;;24.25;21.75;;;;;;;;5051027;28;11036;-87
2024/03/19 05:09:30;;;;;;;;;18.75;17.50;;;;;;;;5049399;28;11215;-87
2024/03/19 05:12:01;;;;;;;;;18.25;18.25;;;;;;;;5052073;28;11041;-82
2024/03/19 05:14:29;;;;;;;;;22.75;20.25;;;;;;;;5050754;28;11253;-85
2024/03/19 05:16:58;;;;;;;;;14.75;14.25;;;;;;;;5051207;28;11310;-80
2024/03/19 05:19:25;;;;;;;;;15.00;15.00;;;;;;;;5051070;28;10994;-87
2024/03/19 05:21:52;;;;;;;;;16.00;16.00;;;;;;;;5051458;28;10995;-84
2024/03/19 05:24:19;;;;;;;;;18.00;16.50;;;;;;;;5050898;28;11234;-86
2024/03/19 05:26:47;;;;;;;;;15.50;15.50;;;;;;;;5052028;28;10960;-87
2024/03/19 05:29:14;;;;;;;;;16.25;16.25;;;;;;;;5052255;28;11132;-83
2024/03/19 05:31:41;;;;;;;;;14.50;14.00;;;;;;;;5054317;28;12017;-83
2024/03/19 05:34:10;;;;;;;;;16.50;16.50;;;;;;;;5054160;28;11259;-84
2024/03/19 05:36:37;;;;;;;;;20.50;16.50;;;;;;;;5051978;28;12051;-82
2024/03/19 05:39:08;;;;;;;;;15.00;14.50;;;;;;;;5049503;28;11366;-82
2024/03/19 05:41:36;;;;;;;;;17.50;15.25;;;;;;;;5050350;28;11454;-85
2024/03/19 05:44:03;;;;;;;;;13.00;13.00;;;;;;;;5049679;28;12380;-83
2024/03/19 05:46:31;;;;;;;;;21.00;19.50;;;;;;;;5050667;28;11325;-84
2024/03/19 05:48:58;;;;;;;;;22.25;18.75;;;;;;;;5049791;28;11577;-83
2024/03/19 05:51:30;;;;;;;;;16.75;16.75;;;;;;;;5049687;28;11500;-84
2024/03/19 05:53:58;;;;;;;;;20.75;20.75;;;;;;;;5049877;28;11508;-82
2024/03/19 05:56:25;;;;;;;;;20.25;18.25;;;;;;;;5050476;28;11585;-87
2024/03/19 05:58:52;;;;;;;;;18.25;16.25;;;;;;;;5050144;28;11506;-83
2024/03/19 06:01:20;;;;;;;;;24.50;20.50;;;;;;;;5049732;28;11409;-83
2024/03/19 06:03:47;;;;;;;;;22.25;20.50;;;;;;;;5050353;28;11593;-89
2024/03/19 06:06:14;;;;;;;;;22.50;22.50;;;;;;;;5048817;28;11313;-77
2024/03/19 06:08:44;;;;;;;;;23.75;22.50;;;;;;;;5049044;28;11463;-80
2024/03/19 06:11:14;;;;;;;;;20.75;20.75;;;;;;;;5049082;28;11542;-80
2024/03/19 06:13:41;;;;;;;;;22.50;22.50;;;;;;;;5050131;28;11162;-80
2024/03/19 06:16:08;;;;;;;;;24.50;22.50;;;;;;;;5049185;28;12085;-82
2024/03/19 06:18:37;;;;;;;;;26.25;25.00;;;;;;;;5049355;28;11565;-82
2024/03/19 06:21:05;;;;;;;;;22.00;20.25;;;;;;;;5048936;28;11640;-80
2024/03/19 06:23:32;;;;;;;;;26.75;26.75;;;;;;;;5049786;28;11795;-79
2024/03/19 06:26:01;;;;;;;;;22.50;21.50;;;;;;;;5049141;28;11058;-79
2024/03/19 06:28:28;;;;;;;;;24.50;23.00;;;;;;;;5051428;28;11031;-78
2024/03/19 06:30:55;;;;;;;;;25.00;23.25;;;;;;;;5051152;28;10922;-77
2024/03/19 06:33:23;;;;;;;;;23.25;20.00;;;;;;;;5053010;28;11047;-80
2024/03/19 06:35:50;;;;;;;;;26.25;26.25;;;;;;;;5052519;28;10947;-79
2024/03/19 06:38:18;;;;;;;;;26.25;24.25;;;;;;;;5050185;28;10934;-77
2024/03/19 06:40:45;;;;;;;;;29.00;27.25;;;;;;;;5050574;28;10850;-77
2024/03/19 06:43:14;;;;;;;;;20.00;20.00;;;;;;;;5053630;28;10967;-81
2024/03/19 06:45:43;;;;;;;;;29.00;28.25;;;;;;;;5053349;28;10748;-80
2024/03/19 06:48:11;;;;;;;;;26.75;25.50;;;;;;;;5052579;28;10971;-79
2024/03/19 06:50:38;;;;;;;;;29.00;26.75;;;;;;;;5049395;28;10994;-81
2024/03/19 06:53:07;;;;;;;;;32.25;27.50;;;;;;;;5048603;28;10909;-79
2024/03/19 06:55:34;;;;;;;;;27.25;24.25;;;;;;;;5039028;28;11047;-76
2024/03/19 06:58:02;;;;;;;;;22.50;20.50;;;;;;;;5052038;28;11823;-77
2024/03/19 07:00:32;;;;;;;;;20.75;20.75;;;;;;;;5049412;28;10750;-80
2024/03/19 07:02:59;;;;;;;;;26.75;24.25;;;;;;;;5048767;28;10648;-82
2024/03/19 07:05:29;;;;;;;;;24.00;21.50;;;;;;;;5049375;28;10832;-77
2024/03/19 07:07:58;;;;;;;;;24.50;24.50;;;;;;;;5048313;28;10563;-81
2024/03/19 07:10:26;;;;;;;;;26.50;24.75;;;;;;;;5049196;28;10763;-79
2024/03/19 07:12:54;;;;;;;;;28.50;25.50;;;;;;;;5048979;28;10487;-78
2024/03/19 07:15:23;;;;;;;;;22.25;22.00;;;;;;;;5049718;28;10734;-79
2024/03/19 07:17:59;;;;;;;;;21.25;19.75;;;;;;;;5050357;28;10531;-80
2024/03/19 07:20:31;;;;;;;;;23.25;23.25;;;;;;;;5052708;28;10440;-78
2024/03/19 07:23:00;;;;;;;;;22.25;21.00;;;;;;;;5051311;28;10388;-78
2024/03/19 07:25:28;;;;;;;;;24.00;23.00;;;;;;;;5049028;28;10425;-77
2024/03/19 07:27:57;;;;;;;;;17.75;16.00;;;;;;;;5048642;28;10236;-78
2024/03/19 07:30:27;;;;;;;;;24.50;22.75;;;;;;;;5047900;28;10295;-78
2024/03/19 07:33:01;;;;;;;;;24.50;23.75;;;;;;;;5049062;28;10359;-80
2024/03/19 07:35:30;;;;;;;;;24.50;24.50;;;;;;;;5015136;28;10271;-81
2024/03/19 07:38:04;;;;;;;;;25.00;25.00;;;;;;;;5048731;28;10179;-78
2024/03/19 07:40:37;;;;;;;;;23.50;23.50;;;;;;;;5049448;28;10238;-80
2024/03/19 07:43:05;;;;;;;;;27.00;25.75;;;;;;;;5051420;28;10212;-78
2024/03/19 07:45:33;;;;;;;;;29.00;28.25;;;;;;;;5052461;28;10183;-79
2024/03/19 07:48:04;;;;;;;;;27.00;23.75;;;;;;;;5053027;28;10363;-80
2024/03/19 07:50:34;;;;;;;;;30.00;29.00;;;;;;;;5052239;28;10360;-78
2024/03/19 07:53:02;;;;;;;;;20.75;19.50;;;;;;;;5051175;28;10342;-79
2024/03/19 07:55:36;;;;;;;;;34.25;30.00;;;;;;;;5051889;28;10076;-78
2024/03/19 07:58:06;;;;;;;;;31.75;29.75;;;;;;;;5052088;28;10278;-78
2024/03/19 08:00:34;;;;;;;;;29.25;27.50;;;;;;;;5042230;28;10194;-78
2024/03/19 08:03:09;;;;;;;;;25.50;24.00;;;;;;;;5052154;28;10085;-79
2024/03/19 08:05:36;;;;;;;;;33.25;29.50;;;;;;;;5052387;28;10149;-81
2024/03/19 08:08:04;;;;;;;;;34.00;31.75;;;;;;;;5052348;28;10173;-81
2024/03/19 08:10:31;;;;;;;;;30.75;30.25;;;;;;;;5052935;28;10325;-79
2024/03/19 08:12:58;;;;;;;;;32.75;31.75;;;;;;;;5052430;28;10283;-76
2024/03/19 08:15:26;;;;;;;;;34.50;32.00;;;;;;;;5053533;28;10229;-80
2024/03/19 08:17:54;;;;;;;;;37.25;33.00;;;;;;;;5055174;28;10282;-79
2024/03/19 08:20:22;;;;;;;;;32.75;32.00;;;;;;;;5055803;28;10541;-78
2024/03/19 08:22:50;;;;;;;;;41.00;34.00;;;;;;;;5056838;28;10422;-80
2024/03/19 08:25:18;;;;;;;;;36.25;32.75;;;;;;;;5056874;28;10205;-78
2024/03/19 08:27:45;;;;;;;;;33.75;31.25;;;;;;;;5056846;28;10358;-79
2024/03/19 08:30:13;;;;;;;;;37.50;35.00;;;;;;;;5056202;28;10138;-78
2024/03/19 08:32:40;;;;;;;;;31.25;30.25;;;;;;;;5056654;28;10224;-78
2024/03/19 08:35:10;;;;;;;;;30.50;30.25;;;;;;;;5053883;28;9981;-77
2024/03/19 08:37:46;;;;;;;;;39.75;34.00;;;;;;;;5033698;28;10036;-77
2024/03/19 08:40:14;;;;;;;;;38.75;34.25;;;;;;;;5050569;28;10181;-80
2024/03/19 08:42:45;;;;;;;;;34.25;32.75;;;;;;;;5050457;28;9941;-81
2024/03/19 08:45:15;;;;;;;;;32.75;29.00;;;;;;;;5050178;28;9916;-80
2024/03/19 08:47:43;;;;;;;;;44.00;36.50;;;;;;;;5050287;28;9900;-80
2024/03/19 08:50:11;;;;;;;;;40.50;35.00;;;;;;;;5050371;28;10265;-80
2024/03/19 08:52:42;;;;;;;;;35.75;32.50;;;;;;;;5050710;28;9950;-79
2024/03/19 08:55:12;;;;;;;;;59.25;46.75;;;;;;;;5048887;28;9719;-80
2024/03/19 08:57:39;;;;;;;;;50.25;40.75;;;;;;;;5050963;28;10430;-79
2024/03/19 09:00:11;;;;;;;;;41.25;34.50;;;;;;;;5050706;28;10214;-79
2024/03/19 09:02:39;;;;;;;;;42.75;33.50;;;;;;;;5050879;28;9720;-78
2024/03/19 09:05:09;;;;;;;;;33.67;30.67;;;;;;;;5053667;28;9925;-80
2024/03/19 09:07:40;;;;;;;;;23.50;22.75;;;;;;;;5054343;28;10018;-77
2024/03/19 09:10:09;;;;;;;;;27.67;26.33;;;;;;;;5053398;28;9676;-78
2024/03/19 09:12:36;;;;;;;;;26.00;26.00;;;;;;;;5050715;28;9028;-78
2024/03/19 09:15:05;;;;;;;;;20.25;20.25;;;;;;;;5050619;28;8988;-81
2024/03/19 09:17:33;;;;;;;;;23.00;23.00;;;;;;;;5051261;28;8889;-77
2024/03/19 09:20:00;;;;;;;;;30.25;25.75;;;;;;;;5050238;28;8850;-80
2024/03/19 09:22:27;;;;;;;;;24.75;22.75;;;;;;;;5049335;28;8867;-79
2024/03/19 09:24:56;;;;;;;;;20.75;19.75;;;;;;;;5050318;28;8944;-78
2024/03/19 09:27:23;;;;;;;;;22.50;20.50;;;;;;;;5051519;28;8859;-79
2024/03/19 09:29:51;;;;;;;;;25.50;22.50;;;;;;;;5052843;28;8981;-78
2024/03/19 09:32:18;;;;;;;;;24.50;22.50;;;;;;;;5049900;28;8851;-78
2024/03/19 09:34:45;;;;;;;;;26.00;25.00;;;;;;;;5049913;28;8984;-78
2024/03/19 09:37:12;;;;;;;;;17.50;16.00;;;;;;;;5049319;28;8873;-78
2024/03/19 09:39:39;;;;;;;;;19.00;17.50;;;;;;;;5049582;28;9686;-78
2024/03/19 09:42:10;;;;;;;;;18.00;16.00;;;;;;;;5049503;28;8834;-78
2024/03/19 09:44:37;;;;;;;;;16.25;16.25;;;;;;;;5050040;28;8866;-78
2024/03/19 09:47:05;;;;;;;;;24.00;19.75;;;;;;;;5050066;28;9632;-78
2024/03/19 09:49:33;;;;;;;;;13.75;13.50;;;;;;;;5049832;28;8897;-80
2024/03/19 09:52:03;;;;;;;;;14.00;14.00;;;;;;;;5047030;28;8827;-80
2024/03/19 09:54:30;;;;;;;;;15.50;15.50;;;;;;;;5049844;28;9253;-79
2024/03/19 09:56:59;;;;;;;;;16.00;16.00;;;;;;;;5048905;28;8862;-79
2024/03/19 09:59:29;;;;;;;;;15.25;15.25;;;;;;;;5051451;28;8881;-79
2024/03/19 10:01:57;;;;;;;;;17.25;16.00;;;;;;;;5056440;28;8819;-79
2024/03/19 10:04:26;;;;;;;;;15.00;15.00;;;;;;;;5052400;28;8857;-79
2024/03/19 10:06:53;;;;;;;;;13.00;12.25;;;;;;;;5034636;28;8858;-78
2024/03/19 10:09:22;;;;;;;;;17.50;14.25;;;;;;;;5052873;28;8850;-78
2024/03/19 10:11:49;;;;;;;;;12.75;12.75;;;;;;;;5053142;28;8978;-79
2024/03/19 10:14:16;;;;;;;;;10.50;10.00;;;;;;;;5052689;28;8870;-80
2024/03/19 10:16:50;;;;;;;;;12.25;11.25;;;;;;;;5053611;28;8835;-81
2024/03/19 10:19:19;;;;;;;;;11.25;11.25;;;;;;;;5053610;28;8854;-81
2024/03/19 10:21:46;;;;;;;;;12.75;10.50;;;;;;;;5052749;28;8843;-78
2024/03/19 10:24:14;;;;;;;;;13.00;12.75;;;;;;;;5050122;28;8982;-77
2024/03/19 10:26:42;;;;;;;;;9.00;9.00;;;;;;;;5048582;28;9523;-78
2024/03/19 10:29:13;;;;;;;;;9.25;8.25;;;;;;;;5048485;28;8885;-79
2024/03/19 10:31:40;;;;;;;;;8.75;8.75;;;;;;;;5048637;28;8801;-82
2024/03/19 10:34:18;;;;;;;;;9.25;9.00;;;;;;;;5048421;28;8859;-76
2024/03/19 10:36:48;;;;;;;;;18.00;15.50;;;;;;;;5048481;28;8997;-78
2024/03/19 10:39:20;;;;;;;;;14.00;14.00;;;;;;;;5047594;28;8863;-80
2024/03/19 10:41:51;;;;;;;;;7.80;7.80;;;;;;;;5047211;28;8835;-76
2024/03/19 10:44:20;;;;;;;;;13.40;11.20;;;;;;;;5048034;28;8858;-78
2024/03/19 10:46:48;;;;;;;;;9.40;9.20;;;;;;;;5047941;28;8858;-77
2024/03/19 10:49:18;;;;;;;;;5.40;5.40;;;;;;;;5047876;28;8853;-78
2024/03/19 10:51:45;;;;;;;;;9.80;9.00;;;;;;;;5048431;28;8896;-77
2024/03/19 10:54:15;;;;;;;;;6.00;6.00;;;;;;;;5050179;28;9005;-78
2024/03/19 10:56:43;;;;;;;;;7.20;5.60;;;;;;;;5050516;28;8855;-79
2024/03/19 10:59:14;;;;;;;;;6.00;6.00;;;;;;;;5050240;28;8870;-78
2024/03/19 11:01:47;;;;;;;;;10.20;9.00;;;;;;;;5047566;28;9655;-79
2024/03/19 11:04:16;;;;;;;;;7.60;7.60;;;;;;;;5048071;28;8866;-78
2024/03/19 11:07:02;;;;;;;;;7.80;7.00;;;;;;;;5047470;28;8854;-78
2024/03/19 11:09:31;;;;;;;;;10.20;8.20;;;;;;;;5047908;28;8870;-78
2024/03/19 11:12:01;;;;;;;;;5.00;5.00;;;;;;;;5048132;28;8969;-78
2024/03/19 11:14:30;;;;;;;;;5.00;5.00;;;;;;;;5050683;28;8867;-78
2024/03/19 11:17:03;;;;;;;;;6.40;6.40;;;;;;;;5062401;28;9645;-78
2024/03/19 11:19:32;;;;;;;;;5.80;4.40;;;;;;;;5048115;28;8921;-80
2024/03/19 11:22:05;;;;;;;;;4.60;4.60;;;;;;;;5051401;28;8969;-79
2024/03/19 11:24:40;;;;;;;;;5.00;4.80;;;;;;;;5041355;28;8860;-81
2024/03/19 11:27:08;;;;;;;;;5.40;5.40;;;;;;;;5046680;28;8854;-81
2024/03/19 11:29:38;;;;;;;;;3.80;3.80;;;;;;;;5048027;28;8894;-78
2024/03/19 11:32:06;;;;;;;;;6.40;5.00;;;;;;;;5046885;28;8934;-79
2024/03/19 11:34:35;;;;;;;;;6.80;5.00;;;;;;;;5047955;28;8872;-81
2024/03/19 11:37:02;;;;;;;;;5.00;4.60;;;;;;;;5047463;28;8972;-80
2024/03/19 11:39:30;;;;;;;;;4.00;4.00;;;;;;;;5047222;28;8839;-77
2024/03/19 11:42:02;;;;;;;;;5.40;5.40;;;;;;;;5047247;28;8830;-80
2024/03/19 11:44:30;;;;;;;;;8.00;5.00;;;;;;;;5047268;28;8846;-80
2024/03/19 11:46:57;;;;;;;;;3.40;3.40;;;;;;;;5047301;28;8919;-82
2024/03/19 11:49:29;;;;;;;;;4.60;4.60;;;;;;;;5048102;28;8869;-81
2024/03/19 11:52:00;;;;;;;;;6.00;6.00;;;;;;;;5049010;28;8869;-83
2024/03/19 11:54:30;;;;;;;;;5.80;5.80;;;;;;;;5051549;28;8843;-80
2024/03/19 11:56:57;;;;;;;;;4.80;4.80;;;;;;;;5051856;28;8885;-80
2024/03/19 11:59:29;;;;;;;;;4.40;3.80;;;;;;;;5054889;28;8900;-84
2024/03/19 12:01:57;;;;;;;;;5.40;4.40;;;;;;;;5054012;28;8818;-81
2024/03/19 12:04:25;;;;;;;;;9.20;6.80;;;;;;;;5055354;28;8870;-79
2024/03/19 12:06:53;;;;;;;;;7.00;6.80;;;;;;;;5041283;28;8863;-79
2024/03/19 12:09:23;;;;;;;;;6.20;5.80;;;;;;;;5050713;28;8881;-82
2024/03/19 12:11:54;;;;;;;;;6.20;6.20;;;;;;;;5052445;28;8889;-83
2024/03/19 12:14:23;;;;;;;;;7.20;6.20;;;;;;;;5048768;28;8859;-82
2024/03/19 12:16:51;;;;;;;;;5.40;5.40;;;;;;;;5050733;28;8854;-83
2024/03/19 12:19:20;;;;;;;;;5.80;5.80;;;;;;;;5050326;28;8860;-80
2024/03/19 12:21:50;;;;;;;;;6.40;6.40;;;;;;;;5051479;28;8858;-83
2024/03/19 12:24:19;;;;;;;;;6.60;5.60;;;;;;;;5049175;28;9515;-85
2024/03/19 12:26:50;;;;;;;;;6.20;6.20;;;;;;;;5047845;28;8992;-82
2024/03/19 12:29:19;;;;;;;;;7.20;5.80;;;;;;;;5049096;28;8900;-85
2024/03/19 12:31:52;;;;;;;;;6.20;6.20;;;;;;;;5050898;28;8795;-81
2024/03/19 12:34:37;;;;;;;;;4.60;3.80;;;;;;;;5050691;28;8864;-82
2024/03/19 12:37:05;;;;;;;;;5.40;5.40;;;;;;;;5050936;28;8882;-81
2024/03/19 12:39:33;;;;;;;;;3.80;3.80;;;;;;;;5034342;28;8890;-83
2024/03/19 12:42:05;;;;;;;;;4.20;4.20;;;;;;;;5052667;28;8862;-81
2024/03/19 12:44:35;;;;;;;;;5.60;5.60;;;;;;;;5054956;28;8846;-82
2024/03/19 12:47:06;;;;;;;;;8.20;7.00;;;;;;;;5053065;28;8869;-82
2024/03/19 12:49:36;;;;;;;;;5.80;5.80;;;;;;;;5050694;28;8989;-83
2024/03/19 12:52:04;;;;;;;;;4.60;4.60;;;;;;;;5049936;28;8888;-83
2024/03/19 12:54:31;;;;;;;;;3.40;3.40;;;;;;;;5050776;28;8920;-82
2024/03/19 12:56:59;;;;;;;;;8.20;7.00;;;;;;;;5048906;28;8948;-80
2024/03/19 12:59:27;;;;;;;;;5.60;5.00;;;;;;;;5050427;28;8862;-78
2024/03/19 13:01:55;;;;;;;;;4.00;4.00;;;;;;;;5050493;28;8814;-81
2024/03/19 13:04:22;;;;;;;;;6.60;6.60;;;;;;;;5050813;28;8875;-81
2024/03/19 13:06:49;;;;;;;;;7.20;4.00;;;;;;;;5050464;28;8870;-80
2024/03/19 13:09:22;;;;;;;;;5.60;5.60;;;;;;;;5049844;28;8892;-83
2024/03/19 13:11:50;;;;;;;;;6.20;5.00;;;;;;;;5050717;28;8856;-81
2024/03/19 13:14:17;;;;;;;;;5.80;4.00;;;;;;;;5051393;28;9233;-80
2024/03/19 13:16:46;;;;;;;;;6.40;4.60;;;;;;;;5052770;28;8862;-82
2024/03/19 13:19:16;;;;;;;;;5.40;5.40;;;;;;;;5051374;28;8947;-81
2024/03/19 13:21:43;;;;;;;;;5.00;3.00;;;;;;;;5050357;28;9004;-81
2024/03/19 13:24:11;;;;;;;;;1.80;1.40;;;;;;;;5049579;28;8819;-81
2024/03/19 13:26:38;;;;;;;;;3.00;3.00;;;;;;;;5049840;28;8871;-81
2024/03/19 13:29:05;;;;;;;;;4.00;4.00;;;;;;;;5050225;28;8861;-82
2024/03/19 13:31:33;;;;;;;;;5.20;3.40;;;;;;;;5049219;28;8821;-81
2024/03/19 13:34:02;;;;;;;;;3.20;3.00;;;;;;;;5049650;28;8958;-82
2024/03/19 13:36:29;;;;;;;;;4.60;3.80;;;;;;;;5050049;28;8879;-81
2024/03/19 13:38:58;;;;;;;;;3.40;3.40;;;;;;;;5051365;28;9748;-81
2024/03/19 13:41:32;;;;;;;;;4.20;4.00;;;;;;;;5052882;28;8863;-81
2024/03/19 13:44:01;;;;;;;;;2.40;2.40;;;;;;;;5053863;28;8974;-82
2024/03/19 13:46:30;;;;;;;;;4.00;4.00;;;;;;;;5056266;28;8957;-82
2024/03/19 13:48:57;;;;;;;;;3.60;2.60;;;;;;;;5038684;28;8854;-81
2024/03/19 13:51:29;;;;;;;;;4.00;4.00;;;;;;;;5057096;28;8855;-82
2024/03/19 13:54:05;;;;;;;;;3.00;3.00;;;;;;;;5055549;28;8874;-81
2024/03/19 13:56:32;;;;;;;;;3.20;3.00;;;;;;;;5055407;28;8831;-83
2024/03/19 13:58:59;;;;;;;;;3.00;3.00;;;;;;;;5052210;28;8846;-82
2024/03/19 14:01:29;;;;;;;;;2.80;2.80;;;;;;;;5049793;28;8807;-82
2024/03/19 14:03:57;;;;;;;;;4.40;4.40;;;;;;;;5049762;28;8872;-82
2024/03/19 14:06:26;;;;;;;;;4.20;2.80;;;;;;;;5049286;28;8846;-82
2024/03/19 14:08:56;;;;;;;;;4.00;2.60;;;;;;;;5050001;28;8898;-82
2024/03/19 14:11:24;;;;;;;;;2.40;2.40;;;;;;;;5048828;28;8886;-82
2024/03/19 14:13:52;;;;;;;;;3.00;3.00;;;;;;;;5050750;28;8866;-83
2024/03/19 14:16:19;;;;;;;;;2.00;2.00;;;;;;;;5049059;28;8847;-82
2024/03/19 14:18:46;;;;;;;;;6.00;4.40;;;;;;;;5049047;28;8885;-81
2024/03/19 14:21:16;;;;;;;;;3.00;3.00;;;;;;;;5048926;28;8904;-82
2024/03/19 14:23:46;;;;;;;;;2.40;2.20;;;;;;;;5049017;28;8903;-82
2024/03/19 14:26:15;;;;;;;;;1.20;1.20;;;;;;;;5049278;28;8885;-80
2024/03/19 14:28:42;;;;;;;;;3.00;3.00;;;;;;;;5050348;28;8988;-82
2024/03/19 14:31:09;;;;;;;;;1.80;1.80;;;;;;;;5040271;28;8909;-83
2024/03/19 14:33:36;;;;;;;;;2.20;2.20;;;;;;;;5051707;28;8865;-86
2024/03/19 14:36:05;;;;;;;;;1.80;1.80;;;;;;;;5049956;28;8894;-86